createdAt,value
2023-05-12T00:02:23.456Z,13.00
2023-05-12T00:04:54.812Z,12.94
2023-05-12T00:07:25.871Z,12.87
2023-05-12T00:09:57.117Z,12.84
2023-05-12T00:12:28.529Z,12.78
2023-05-12T00:14:59.493Z,12.72
2023-05-12T00:17:30.543Z,12.66
2023-05-12T00:20:01.607Z,12.61
2023-05-12T00:22:34.261Z,12.56
2023-05-12T00:25:06.038Z,12.51
2023-05-12T00:27:37.014Z,12.45
2023-05-12T00:30:10.528Z,12.34
2023-05-12T00:32:41.592Z,12.23
2023-05-12T00:35:13.227Z,12.15
2023-05-12T00:37:44.290Z,12.06
2023-05-12T00:40:16.181Z,11.99
2023-05-12T00:42:47.303Z,11.94
2023-05-12T00:45:18.265Z,11.91
2023-05-12T00:47:50.664Z,11.88
2023-05-12T00:50:22.336Z,11.86
2023-05-12T00:52:53.847Z,11.84
2023-05-12T00:55:25.324Z,11.83
2023-05-12T00:57:56.619Z,11.81
2023-05-12T01:00:27.704Z,11.79
2023-05-12T01:02:59.609Z,11.75
2023-05-12T01:05:37.015Z,11.72
2023-05-12T01:08:09.495Z,11.69
2023-05-12T01:10:46.357Z,11.65
2023-05-12T01:13:17.476Z,11.65
2023-05-12T01:15:50.618Z,11.64
2023-05-12T01:18:23.047Z,11.67
2023-05-12T01:20:54.885Z,11.71
2023-05-12T01:23:35.812Z,11.74
2023-05-12T01:26:09.896Z,11.76
2023-05-12T01:28:42.402Z,11.80
2023-05-12T01:31:13.629Z,11.85
2023-05-12T01:33:45.410Z,11.89
2023-05-12T01:36:16.893Z,11.94
2023-05-12T01:38:47.933Z,11.95
2023-05-12T01:41:18.916Z,11.95
2023-05-12T01:43:50.077Z,11.99
2023-05-12T01:46:21.141Z,12.02
2023-05-12T01:48:52.119Z,12.06
2023-05-12T01:51:23.133Z,12.10
2023-05-12T01:53:54.129Z,12.13
2023-05-12T01:56:23.400Z,12.14
2023-05-12T01:58:54.282Z,12.12
2023-05-12T02:01:28.845Z,12.09
2023-05-12T02:04:00.630Z,12.09
2023-05-12T02:06:32.650Z,12.09
2023-05-12T02:09:03.995Z,12.09
2023-05-12T02:11:34.937Z,12.09
2023-05-12T02:14:06.675Z,12.08
2023-05-12T02:16:37.772Z,12.08
2023-05-12T02:19:09.766Z,12.07
2023-05-12T02:21:41.042Z,12.07
2023-05-12T02:24:14.212Z,12.06
2023-05-12T02:26:46.044Z,12.04
2023-05-12T02:29:17.050Z,12.02
2023-05-12T02:31:48.290Z,12.00
2023-05-12T02:34:19.263Z,11.97
2023-05-12T02:36:50.559Z,11.96
2023-05-12T02:39:21.990Z,11.93
2023-05-12T02:41:52.936Z,11.92
2023-05-12T02:44:24.004Z,11.84
2023-05-12T02:46:55.054Z,11.80
2023-05-12T02:49:26.048Z,11.77
2023-05-12T02:51:57.327Z,11.74
2023-05-12T02:54:28.378Z,11.72
2023-05-12T02:57:00.042Z,11.68
2023-05-12T02:59:31.195Z,11.63
2023-05-12T03:02:02.171Z,11.57
2023-05-12T03:04:33.666Z,11.53
2023-05-12T03:07:04.772Z,11.50
2023-05-12T03:09:35.686Z,11.49
2023-05-12T03:12:08.658Z,11.47
2023-05-12T03:14:39.640Z,11.46
2023-05-12T03:17:08.988Z,11.45
2023-05-12T03:19:40.170Z,11.41
2023-05-12T03:22:12.388Z,11.39
2023-05-12T03:24:43.637Z,11.36
2023-05-12T03:27:14.976Z,11.32
2023-05-12T03:29:46.252Z,11.27
2023-05-12T03:32:17.575Z,11.24
2023-05-12T03:34:48.643Z,11.21
2023-05-12T03:37:18.022Z,11.17
2023-05-12T03:39:47.553Z,11.12
2023-05-12T03:42:19.312Z,11.07
2023-05-12T03:44:50.304Z,11.07
2023-05-12T03:47:21.714Z,11.07
2023-05-12T03:49:52.877Z,11.06
2023-05-12T03:52:23.697Z,11.06
2023-05-12T03:54:55.208Z,11.05
2023-05-12T03:57:26.165Z,11.05
2023-05-12T03:59:57.920Z,11.04
2023-05-12T04:02:29.028Z,11.04
2023-05-12T04:05:00.405Z,11.03
2023-05-12T04:07:31.508Z,11.04
2023-05-12T04:10:02.918Z,11.05
2023-05-12T04:12:34.511Z,11.06
2023-05-12T04:15:06.526Z,11.07
2023-05-12T04:17:37.822Z,11.10
2023-05-12T04:20:10.779Z,11.14
2023-05-12T04:22:41.770Z,11.17
2023-05-12T04:25:11.502Z,11.21
2023-05-12T04:27:42.551Z,11.21
2023-05-12T04:30:14.492Z,11.23
2023-05-12T04:32:45.469Z,11.25
2023-05-12T04:35:16.746Z,11.29
2023-05-12T04:37:47.653Z,11.33
2023-05-12T04:40:19.241Z,11.39
2023-05-12T04:42:50.611Z,11.43
2023-05-12T04:45:22.102Z,11.48
2023-05-12T04:47:53.041Z,11.55
2023-05-12T04:50:24.368Z,11.59
2023-05-12T04:52:55.532Z,11.66
2023-05-12T04:55:27.116Z,11.71
2023-05-12T04:57:58.226Z,11.78
2023-05-12T05:00:29.558Z,11.85
2023-05-12T05:03:00.668Z,11.93
2023-05-12T05:05:32.041Z,11.99
2023-05-12T05:08:03.331Z,12.07
2023-05-12T05:10:34.309Z,12.13
2023-05-12T05:13:05.311Z,12.21
2023-05-12T05:15:36.303Z,12.29
2023-05-12T05:18:07.757Z,12.37
2023-05-12T05:20:40.964Z,12.46
2023-05-12T05:23:14.727Z,12.55
2023-05-12T05:25:45.933Z,12.62
2023-05-12T05:28:17.030Z,12.72
2023-05-12T05:30:48.142Z,12.83
2023-05-12T05:33:19.153Z,12.93
2023-05-12T05:35:50.930Z,13.03
2023-05-12T05:38:21.834Z,13.12
2023-05-12T05:40:54.554Z,13.21
2023-05-12T05:43:25.954Z,13.28
2023-05-12T05:45:58.280Z,13.37
2023-05-12T05:48:29.567Z,13.46
2023-05-12T05:51:00.582Z,13.57
2023-05-12T05:53:31.596Z,13.68
2023-05-12T05:56:02.595Z,13.79
2023-05-12T05:58:33.537Z,13.91
2023-05-12T06:01:05.227Z,14.03
2023-05-12T06:03:36.276Z,14.15
2023-05-12T06:06:08.488Z,14.27
2023-05-12T06:08:39.389Z,14.37
2023-05-12T06:11:10.461Z,14.45
2023-05-12T06:13:41.451Z,14.53
2023-05-12T06:16:12.563Z,14.62
2023-05-12T06:18:43.611Z,14.70
2023-05-12T06:21:14.558Z,14.80
2023-05-12T06:23:45.590Z,14.88
2023-05-12T06:26:17.125Z,14.93
2023-05-12T06:28:48.513Z,14.98
2023-05-12T06:31:19.629Z,15.01
2023-05-12T06:33:50.827Z,15.07
2023-05-12T06:36:22.743Z,15.13
2023-05-12T06:38:54.018Z,15.22
2023-05-12T06:41:25.400Z,15.30
2023-05-12T06:43:56.501Z,15.36
2023-05-12T06:46:27.622Z,15.37
2023-05-12T06:49:00.312Z,15.42
2023-05-12T06:51:31.496Z,15.47
2023-05-12T06:54:02.417Z,15.51
2023-05-12T06:56:33.463Z,15.62
2023-05-12T06:59:04.800Z,15.70
2023-05-12T07:01:36.031Z,15.78
2023-05-12T07:04:07.981Z,15.88
2023-05-12T07:06:38.957Z,15.94
2023-05-12T07:09:10.101Z,15.96
2023-05-12T07:11:41.320Z,16.03
2023-05-12T07:14:12.462Z,16.10
2023-05-12T07:16:43.650Z,16.20
2023-05-12T07:19:14.661Z,16.27
2023-05-12T07:21:46.060Z,16.33
2023-05-12T07:24:17.709Z,16.36
2023-05-12T07:26:48.900Z,16.45
2023-05-12T07:29:19.827Z,16.54
2023-05-12T07:31:50.936Z,16.56
2023-05-12T07:34:22.321Z,16.60
2023-05-12T07:36:53.488Z,16.66
2023-05-12T07:39:25.096Z,16.72
2023-05-12T07:41:56.308Z,16.80
2023-05-12T07:44:27.699Z,16.88
2023-05-12T07:46:58.796Z,16.99
2023-05-12T07:49:29.973Z,17.08
2023-05-12T07:52:01.153Z,17.17
2023-05-12T07:54:32.550Z,17.23
2023-05-12T07:57:03.550Z,17.36
2023-05-12T07:59:34.990Z,17.48
2023-05-12T08:02:06.644Z,17.56
2023-05-12T08:04:37.806Z,17.65
2023-05-12T08:07:08.973Z,17.75
2023-05-12T08:09:39.946Z,17.83
2023-05-12T08:12:11.465Z,17.92
2023-05-12T08:14:42.420Z,17.95
2023-05-12T08:17:13.609Z,17.87
2023-05-12T08:19:45.019Z,17.80
2023-05-12T08:22:16.427Z,17.73
2023-05-12T08:24:48.280Z,17.71
2023-05-12T08:27:19.321Z,17.68
2023-05-12T08:29:50.352Z,17.67
2023-05-12T08:32:21.454Z,17.66
2023-05-12T08:34:52.498Z,17.74
2023-05-12T08:37:23.695Z,17.80
2023-05-12T08:39:54.952Z,17.82
2023-05-12T08:42:43.583Z,17.83
2023-05-12T08:45:15.705Z,17.83
2023-05-12T08:47:47.410Z,17.84
2023-05-12T08:50:22.624Z,17.86
2023-05-12T08:52:54.425Z,17.93
2023-05-12T08:55:31.839Z,18.10
2023-05-12T08:58:06.735Z,18.30
2023-05-12T09:00:40.224Z,18.40
2023-05-12T09:03:13.967Z,18.45
2023-05-12T09:05:46.446Z,18.49
2023-05-12T09:08:18.228Z,18.54
2023-05-12T09:10:50.599Z,18.53
2023-05-12T09:13:25.212Z,18.48
2023-05-12T09:15:58.990Z,18.49
2023-05-12T09:18:44.014Z,18.51
2023-05-12T09:21:15.503Z,18.53
2023-05-12T09:23:57.222Z,18.55
2023-05-12T09:26:29.763Z,18.59
2023-05-12T09:29:08.889Z,18.63
2023-05-12T09:31:40.536Z,18.69
2023-05-12T09:34:12.266Z,18.76
2023-05-12T09:36:43.373Z,18.86
2023-05-12T09:39:14.609Z,18.96
2023-05-12T09:41:45.811Z,19.10
2023-05-12T09:44:18.244Z,19.17
2023-05-12T09:46:49.997Z,19.22
2023-05-12T09:49:26.033Z,19.22
2023-05-12T09:51:59.039Z,19.23
2023-05-12T09:54:32.152Z,19.31
2023-05-12T09:57:07.192Z,19.36
2023-05-12T09:59:40.997Z,19.36
2023-05-12T10:02:16.909Z,19.46
2023-05-12T10:04:51.543Z,19.59
2023-05-12T10:07:27.601Z,19.73
2023-05-12T10:10:01.047Z,19.80
2023-05-12T10:12:32.281Z,19.84
2023-05-12T10:15:03.953Z,19.92
2023-05-12T10:17:36.373Z,19.94
2023-05-12T10:20:09.994Z,19.96
2023-05-12T10:22:43.406Z,19.97
2023-05-12T10:25:15.148Z,20.00
2023-05-12T10:27:47.909Z,20.02
2023-05-12T10:30:19.604Z,20.00
2023-05-12T10:32:51.064Z,19.97
2023-05-12T10:35:32.522Z,20.08
2023-05-12T10:38:08.681Z,20.15
2023-05-12T10:40:50.584Z,20.19
2023-05-12T10:43:24.967Z,20.22
2023-05-12T10:46:16.918Z,20.29
2023-05-12T10:48:57.136Z,20.33
2023-05-12T10:51:29.901Z,20.31
2023-05-12T10:54:02.267Z,20.27
2023-05-12T10:56:45.473Z,20.26
2023-05-12T10:59:19.223Z,20.20
2023-05-12T11:02:06.616Z,20.20
2023-05-12T11:04:44.468Z,20.26
2023-05-12T11:07:18.765Z,20.22
2023-05-12T11:09:58.607Z,20.23
2023-05-12T11:12:33.762Z,20.28
2023-05-12T11:15:06.512Z,20.29
2023-05-12T11:17:41.692Z,20.16
2023-05-12T11:20:30.929Z,20.04
2023-05-12T11:23:04.308Z,19.93
2023-05-12T11:25:35.541Z,19.84
2023-05-12T11:28:12.151Z,19.74
2023-05-12T11:30:49.124Z,19.71
2023-05-12T11:33:23.257Z,19.66
2023-05-12T11:35:54.417Z,19.64
2023-05-12T11:38:27.455Z,19.64
2023-05-12T11:40:58.423Z,19.61
2023-05-12T11:43:31.114Z,19.59
2023-05-12T11:46:02.270Z,19.60
2023-05-12T11:48:59.453Z,19.68
2023-05-12T11:51:30.947Z,19.73
2023-05-12T11:54:01.965Z,19.74
2023-05-12T11:56:33.014Z,19.79
2023-05-12T11:59:04.611Z,19.82
2023-05-12T12:01:46.362Z,19.90
2023-05-12T12:04:18.110Z,20.00
2023-05-12T12:06:49.063Z,20.08
2023-05-12T12:09:20.116Z,20.18
2023-05-12T12:11:51.165Z,20.36
2023-05-12T12:14:22.567Z,20.57
2023-05-12T12:16:53.725Z,20.73
2023-05-12T12:19:24.941Z,20.85
2023-05-12T12:21:56.194Z,20.91
2023-05-12T12:24:27.587Z,20.92
2023-05-12T12:26:58.647Z,20.97
2023-05-12T12:29:30.239Z,21.06
2023-05-12T12:32:01.343Z,21.19
2023-05-12T12:34:32.943Z,21.25
2023-05-12T12:37:06.827Z,21.19
2023-05-12T12:39:38.138Z,21.15
2023-05-12T12:42:09.561Z,21.14
2023-05-12T12:44:40.490Z,21.10
2023-05-12T12:47:11.545Z,21.02
2023-05-12T12:49:42.549Z,20.90
2023-05-12T12:52:13.656Z,20.83
2023-05-12T12:54:44.650Z,20.78
2023-05-12T12:57:15.550Z,20.70
2023-05-12T12:59:46.673Z,20.62
2023-05-12T13:02:17.743Z,20.56
2023-05-12T13:04:48.756Z,20.47
2023-05-12T13:07:19.790Z,20.27
2023-05-12T13:09:50.844Z,20.07
2023-05-12T13:12:22.238Z,19.93
2023-05-12T13:14:53.324Z,19.85
2023-05-12T13:17:24.855Z,19.79
2023-05-12T13:19:56.138Z,19.74
2023-05-12T13:22:27.620Z,19.68
2023-05-12T13:24:59.017Z,19.64
2023-05-12T13:27:30.207Z,19.58
2023-05-12T13:30:01.394Z,19.50
2023-05-12T13:32:34.040Z,19.44
2023-05-12T13:35:05.406Z,19.40
2023-05-12T13:37:37.510Z,19.35
2023-05-12T13:40:10.733Z,19.32
2023-05-12T13:42:41.604Z,19.29
2023-05-12T13:45:14.042Z,19.25
2023-05-12T13:47:45.064Z,19.18
2023-05-12T13:50:16.367Z,19.14
2023-05-12T13:52:48.425Z,19.06
2023-05-12T13:55:21.701Z,18.93
2023-05-12T13:57:52.984Z,18.70
2023-05-12T14:00:27.225Z,18.45
2023-05-12T14:02:58.815Z,18.26
2023-05-12T14:05:29.840Z,18.06
2023-05-12T14:08:01.018Z,17.88
2023-05-12T14:10:35.393Z,17.70
2023-05-12T14:13:08.537Z,17.53
2023-05-12T14:15:48.520Z,17.30
2023-05-12T14:18:21.036Z,17.07
2023-05-12T14:20:52.521Z,16.91
2023-05-12T14:23:23.546Z,16.78
2023-05-12T14:25:55.593Z,16.71
2023-05-12T14:28:27.096Z,16.66
2023-05-12T14:30:58.189Z,16.60
2023-05-12T14:33:29.386Z,16.55
2023-05-12T14:36:07.135Z,16.52
2023-05-12T14:38:38.665Z,16.53
2023-05-12T14:41:09.948Z,16.54
2023-05-12T14:43:41.112Z,16.55
2023-05-12T14:46:12.139Z,16.55
2023-05-12T14:48:43.226Z,16.54
2023-05-12T14:51:14.245Z,16.55
2023-05-12T14:53:45.333Z,16.62
2023-05-12T14:56:16.303Z,16.70
2023-05-12T14:58:47.593Z,16.79
2023-05-12T15:01:18.566Z,16.87
2023-05-12T15:03:49.943Z,16.94
2023-05-12T15:06:20.863Z,16.99
2023-05-12T15:08:52.208Z,17.05
2023-05-12T15:11:23.182Z,17.11
2023-05-12T15:13:54.670Z,17.21
2023-05-12T15:16:28.218Z,17.27
2023-05-12T15:18:59.290Z,17.30
2023-05-12T15:21:30.917Z,17.38
2023-05-12T15:24:02.196Z,17.53
2023-05-12T15:26:34.725Z,17.69
2023-05-12T15:29:07.412Z,17.84
2023-05-12T15:31:38.727Z,17.97
2023-05-12T15:34:10.110Z,18.11
2023-05-12T15:36:41.269Z,18.23
2023-05-12T15:39:12.124Z,18.37
2023-05-12T15:41:43.137Z,18.46
2023-05-12T15:44:14.024Z,18.51
2023-05-12T15:46:45.209Z,18.54
2023-05-12T15:49:16.395Z,18.59
2023-05-12T15:51:47.309Z,18.76
2023-05-12T15:54:18.543Z,18.91
2023-05-12T15:56:50.721Z,19.02
2023-05-12T15:59:23.354Z,19.20
2023-05-12T16:01:55.427Z,19.35
2023-05-12T16:04:29.741Z,19.50
2023-05-12T16:07:01.070Z,19.54
2023-05-12T16:09:32.557Z,19.49
2023-05-12T16:12:03.802Z,19.41
2023-05-12T16:14:35.469Z,19.42
2023-05-12T16:17:07.978Z,19.43
2023-05-12T16:19:39.329Z,19.46
2023-05-12T16:22:11.635Z,19.37
2023-05-12T16:24:43.033Z,19.07
2023-05-12T16:27:15.314Z,18.82
2023-05-12T16:29:49.811Z,18.59
2023-05-12T16:32:23.470Z,18.36
2023-05-12T16:34:54.567Z,18.26
2023-05-12T16:37:26.680Z,18.17
2023-05-12T16:39:58.263Z,18.12
2023-05-12T16:42:29.405Z,18.14
2023-05-12T16:45:00.374Z,18.21
2023-05-12T16:47:34.880Z,18.24
2023-05-12T16:50:06.562Z,18.26
2023-05-12T16:52:47.970Z,18.26
2023-05-12T16:55:19.520Z,18.23
2023-05-12T16:57:51.116Z,18.20
2023-05-12T17:00:22.914Z,18.20
2023-05-12T17:02:54.167Z,18.17
2023-05-12T17:05:25.626Z,18.12
2023-05-12T17:07:56.712Z,18.19
2023-05-12T17:10:27.901Z,18.33
2023-05-12T17:12:59.082Z,18.59
2023-05-12T17:15:30.500Z,18.77
2023-05-12T17:18:01.687Z,18.85
2023-05-12T17:20:34.461Z,18.92
2023-05-12T17:23:05.786Z,18.90
2023-05-12T17:25:37.716Z,18.83
2023-05-12T17:28:08.866Z,18.76
2023-05-12T17:30:40.017Z,18.68
2023-05-12T17:33:11.429Z,18.58
2023-05-12T17:35:42.776Z,18.43
2023-05-12T17:38:13.993Z,18.24
2023-05-12T17:40:45.009Z,18.11
2023-05-12T17:43:16.143Z,18.00
2023-05-12T17:45:47.209Z,17.91
2023-05-12T17:48:18.746Z,17.87
2023-05-12T17:50:49.961Z,17.96
2023-05-12T17:53:21.606Z,18.08
2023-05-12T17:55:53.010Z,18.09
2023-05-12T17:58:24.768Z,18.00
2023-05-12T18:00:55.858Z,17.90
2023-05-12T18:03:27.077Z,17.81
2023-05-12T18:05:58.719Z,17.66
2023-05-12T18:08:29.869Z,17.49
2023-05-12T18:11:03.650Z,17.34
2023-05-12T18:13:35.122Z,17.21
2023-05-12T18:16:08.994Z,17.06
2023-05-12T18:18:48.845Z,16.92
2023-05-12T18:21:19.933Z,16.79
2023-05-12T18:23:50.940Z,16.66
2023-05-12T18:26:22.033Z,16.56
2023-05-12T18:28:53.100Z,16.47
2023-05-12T18:31:24.249Z,16.38
2023-05-12T18:33:56.237Z,16.29
2023-05-12T18:36:28.346Z,16.19
2023-05-12T18:38:59.569Z,16.10
2023-05-12T18:41:31.483Z,16.01
2023-05-12T18:44:02.472Z,15.93
2023-05-12T18:46:33.597Z,15.82
2023-05-12T18:49:04.641Z,15.70
2023-05-12T18:51:36.552Z,15.60
2023-05-12T18:54:07.792Z,15.47
2023-05-12T18:56:38.950Z,15.34
2023-05-12T18:59:09.948Z,15.22
2023-05-12T19:01:41.361Z,15.10
2023-05-12T19:04:12.733Z,15.00
2023-05-12T19:06:44.644Z,14.94
2023-05-12T19:09:15.841Z,14.87
2023-05-12T19:11:47.271Z,14.82
2023-05-12T19:14:18.372Z,14.77
2023-05-12T19:16:50.152Z,14.66
2023-05-12T19:19:22.073Z,14.53
2023-05-12T19:21:53.424Z,14.37
2023-05-12T19:24:27.133Z,14.25
2023-05-12T19:26:58.748Z,14.15
2023-05-12T19:29:29.908Z,14.06
2023-05-12T19:32:01.111Z,13.99
2023-05-12T19:34:32.662Z,13.91
2023-05-12T19:37:03.675Z,13.82
2023-05-12T19:39:35.337Z,13.72
2023-05-12T19:42:07.322Z,13.63
2023-05-12T19:44:38.332Z,13.54
2023-05-12T19:47:09.576Z,13.46
2023-05-12T19:49:41.146Z,13.39
2023-05-12T19:52:12.357Z,13.31
2023-05-12T19:54:43.497Z,13.24
2023-05-12T19:57:14.628Z,13.20
2023-05-12T19:59:45.868Z,13.14
2023-05-12T20:02:17.922Z,13.11
2023-05-12T20:04:49.340Z,13.13
2023-05-12T20:07:21.041Z,13.12
2023-05-12T20:09:52.008Z,13.10
2023-05-12T20:12:23.367Z,13.05
2023-05-12T20:14:54.587Z,12.96
2023-05-12T20:17:25.775Z,12.87
2023-05-12T20:19:57.147Z,12.80
2023-05-12T20:22:28.490Z,12.73
2023-05-12T20:25:04.263Z,12.65
2023-05-12T20:27:35.869Z,12.56
2023-05-12T20:30:08.812Z,12.49
2023-05-12T20:32:39.974Z,12.42
2023-05-12T20:35:12.037Z,12.39
2023-05-12T20:37:43.130Z,12.36
2023-05-12T20:40:15.624Z,12.31
2023-05-12T20:42:48.140Z,12.26
2023-05-12T20:45:19.891Z,12.22
2023-05-12T20:47:51.388Z,12.17
2023-05-12T20:50:23.788Z,12.12
2023-05-12T20:52:54.874Z,12.07
2023-05-12T20:55:27.082Z,12.03
2023-05-12T20:57:58.199Z,12.00
2023-05-12T21:00:29.172Z,11.95
2023-05-12T21:03:02.820Z,11.92
2023-05-12T21:05:34.137Z,11.86
2023-05-12T21:08:05.816Z,11.79
2023-05-12T21:10:39.357Z,11.73
2023-05-12T21:13:10.670Z,11.68
2023-05-12T21:15:41.683Z,11.60
2023-05-12T21:18:13.399Z,11.53
2023-05-12T21:20:44.501Z,11.47
2023-05-12T21:23:15.626Z,11.37
2023-05-12T21:25:46.657Z,11.28
2023-05-12T21:28:18.249Z,11.21
2023-05-12T21:30:49.253Z,11.15
2023-05-12T21:33:20.359Z,11.11
2023-05-12T21:35:51.415Z,11.07
2023-05-12T21:38:22.894Z,11.04
2023-05-12T21:40:55.001Z,11.00
2023-05-12T21:43:25.954Z,10.94
2023-05-12T21:45:56.904Z,10.89
2023-05-12T21:48:28.048Z,10.84
2023-05-12T21:51:03.558Z,10.77
2023-05-12T21:53:34.530Z,10.72
2023-05-12T21:56:06.334Z,10.67
2023-05-12T21:58:37.419Z,10.60
2023-05-12T22:01:08.726Z,10.53
2023-05-12T22:03:39.974Z,10.47
2023-05-12T22:06:12.043Z,10.40
2023-05-12T22:08:43.548Z,10.31
2023-05-12T22:11:15.035Z,10.23
2023-05-12T22:13:46.347Z,10.15
2023-05-12T22:16:18.576Z,10.07
2023-05-12T22:18:51.266Z,9.99
2023-05-12T22:21:22.515Z,9.92
2023-05-12T22:23:53.802Z,9.85
2023-05-12T22:26:25.116Z,9.80
2023-05-12T22:28:56.288Z,9.76
2023-05-12T22:31:27.493Z,9.71
2023-05-12T22:33:58.676Z,9.66
2023-05-12T22:36:29.602Z,9.60
2023-05-12T22:39:01.481Z,9.55
2023-05-12T22:41:33.163Z,9.49
2023-05-12T22:44:04.498Z,9.44
2023-05-12T22:46:35.934Z,9.38
2023-05-12T22:49:07.106Z,9.34
2023-05-12T22:51:38.332Z,9.29
2023-05-12T22:54:09.430Z,9.23
2023-05-12T22:56:40.418Z,9.16
2023-05-12T22:59:11.671Z,9.10
2023-05-12T23:01:42.787Z,9.03
2023-05-12T23:04:14.083Z,8.96
2023-05-12T23:06:43.574Z,8.90
2023-05-12T23:09:14.859Z,8.82
2023-05-12T23:11:46.680Z,8.78
2023-05-12T23:14:17.725Z,8.75
2023-05-12T23:16:48.058Z,8.75
2023-05-12T23:19:18.956Z,8.74
2023-05-12T23:21:50.003Z,8.74
2023-05-12T23:24:21.711Z,8.75
2023-05-12T23:26:52.897Z,8.78
2023-05-12T23:29:22.298Z,8.81
2023-05-12T23:31:53.861Z,8.81
2023-05-12T23:34:24.995Z,8.84
2023-05-12T23:36:56.281Z,8.84
2023-05-12T23:39:27.412Z,8.86
2023-05-12T23:41:58.653Z,8.90
2023-05-12T23:44:29.843Z,8.92
2023-05-12T23:47:01.168Z,8.93
2023-05-12T23:49:32.180Z,8.93
2023-05-12T23:52:01.560Z,8.92
2023-05-12T23:54:33.962Z,8.90
2023-05-12T23:57:03.877Z,8.91
2023-05-12T23:59:34.912Z,8.89
